ADDS METAR Data INFO
IDs: Format: Raw Decoded Include TAF

Data at: 2225 UTC 24 Jun 2018

KOCW 242215Z AUTO 18004KT 10SM SCT100 30/21 A2993 RMK AO2 T02960214
KOCW 242155Z AUTO 19008KT 10SM CLR 30/21 A2992 RMK AO2 T03010207
KOCW 242135Z AUTO 22006KT 10SM CLR 30/20 A2990 RMK AO2 T02950202
KOCW 242115Z AUTO 22009KT 10SM CLR 28/20 A2990 RMK AO2 T02760196
KOCW 242055Z AUTO 18007KT 10SM CLR 27/20 A2990 RMK AO2 T02670197
KOCW 242035Z AUTO 21015G19KT 10SM CLR 28/20 A2991 RMK AO2 T02790198
KOCW 242015Z AUTO 22018G24KT 10SM SCT060 SCT080 31/22 A2991 RMK AO2 T03140224
KOCW 241955Z AUTO 22011G15KT 10SM SCT050 SCT060 SCT080 33/22 A2990 RMK AO2 T03260224
KOCW 241935Z AUTO 23011G16KT 10SM SCT050 BKN065 BKN090 34/22 A2990 RMK AO2 T03360221
KOCW 241915Z AUTO 23007KT 10SM SCT050 SCT065 SCT085 33/22 A2990 RMK AO2 T03340219
KOCW 241855Z AUTO 24009KT 10SM SCT055 SCT075 34/22 A2990 RMK AO2 T03420220
KOCW 241835Z AUTO 25006KT 10SM SCT060 SCT075 35/22 A2991 RMK AO2 T03450218
KOCW 241815Z AUTO 24009G15KT 10SM CLR 34/22 A2992 RMK AO2 T03420220
KOCW 241755Z AUTO 23013G16KT 10SM CLR 34/21 A2992 RMK AO2 T03400214 10341 20265
KOCW 241735Z AUTO 24011G16KT 10SM CLR 34/21 A2992 RMK AO2 T03390213
KOCW 241715Z AUTO 25009KT 10SM CLR 34/21 A2992 RMK AO2 T03400213
KOCW 241655Z AUTO 24010G14KT 10SM CLR 34/21 A2993 RMK AO2 T03360208
KOCW 241635Z AUTO 25008G14KT 10SM CLR 33/21 A2993 RMK AO2 T03310212
KOCW 241615Z AUTO 26008KT 10SM CLR 33/21 A2994 RMK AO2 T03270210
KOCW 241555Z AUTO 24009KT 10SM CLR 33/21 A2994 RMK AO2 T03250209
KOCW 241535Z AUTO 23008KT 10SM CLR 32/22 A2994 RMK AO2 T03170216
KOCW 241515Z AUTO 26005KT 10SM CLR 32/22 A2995 RMK AO2 T03180224
KOCW 241455Z AUTO 23008KT 200V260 10SM CLR 31/22 A2995 RMK AO2 T03100224
KOCW 241435Z AUTO 23008KT 10SM CLR 31/22 A2995 RMK AO2 T03060224
KOCW 241415Z AUTO 25009KT 10SM CLR 30/23 A2995 RMK AO2 T03020227
KOCW 241355Z AUTO 25011KT 10SM CLR 29/22 A2995 RMK AO2 T02940222
KOCW 241335Z AUTO 23011KT 10SM SCT022 29/22 A2994 RMK AO2 T02900223
KOCW 241315Z AUTO 24009KT 10SM SCT020 28/23 A2995 RMK AO2 T02830225
KOCW 241255Z AUTO 24007KT 10SM CLR 28/23 A2995 RMK AO2 T02830230
KOCW 241235Z AUTO 23010G15KT 10SM CLR 28/23 A2994 RMK AO2 T02750232
KOCW 241215Z AUTO 22009KT 10SM CLR 27/23 A2994 RMK AO2 T02690232
KOCW 241155Z AUTO 22007KT 10SM CLR 27/24 A2993 RMK AO2 70024 T02650235 10265 20245
KOCW 241135Z AUTO 22006KT 10SM CLR 26/24 A2993 RMK AO2 T02620236
KOCW 241115Z AUTO 19004KT 10SM CLR 26/24 A2992 RMK AO2 T02550235
KOCW 241055Z AUTO 20004KT 10SM CLR 25/24 A2991 RMK AO2 T02540236
KOCW 241035Z AUTO 22005KT 10SM CLR 25/24 A2992 RMK AO2 T02500236
KOCW 241015Z AUTO 20003KT 7SM CLR 25/24 A2991 RMK AO2 T02460236
KOCW 240955Z AUTO 20003KT 10SM CLR 25/24 A2990 RMK AO2 T02460236
KOCW 240935Z AUTO 19003KT 10SM CLR 25/24 A2990 RMK AO2 T02470237
KOCW 240915Z AUTO 00000KT 10SM CLR 25/24 A2990 RMK AO2 T02470237
KOCW 240855Z AUTO 00000KT 10SM CLR 25/24 A2989 RMK AO2 T02490239
KOCW 240835Z AUTO 19003KT 10SM CLR 25/24 A2989 RMK AO2 T02480239
KOCW 240815Z AUTO 20005KT 10SM CLR 25/24 A2989 RMK AO2 T02490239
KOCW 240755Z AUTO 23003KT 10SM CLR 25/24 A2989 RMK AO2 T02510240
KOCW 240735Z AUTO 22006KT 10SM CLR 25/24 A2989 RMK AO2 T02530241
KOCW 240715Z AUTO 00000KT 7SM CLR 25/24 A2989 RMK AO2 T02500242
KOCW 240655Z AUTO 20003KT 7SM CLR 25/24 A2989 RMK AO2 T02530244
KOCW 240635Z AUTO 00000KT 7SM CLR 25/24 A2989 RMK AO2 T02530244
KOCW 240615Z AUTO 00000KT 7SM CLR 26/25 A2989 RMK AO2 T02550245
KOCW 240555Z AUTO 20004KT 10SM CLR 26/25 A2989 RMK AO2 T02570246 10292 20256 403380250
KOCW 240535Z AUTO 21005KT 7SM CLR 26/25 A2989 RMK AO2 T02570247
KOCW 240515Z AUTO 20003KT 10SM CLR 26/25 A2989 RMK AO2 T02600248
KOCW 240455Z AUTO 19003KT 7SM CLR 26/25 A2990 RMK AO2 T02600248
KOCW 240435Z AUTO 18004KT 10SM CLR 26/25 A2990 RMK AO2 T02610248
KOCW 240415Z AUTO 19004KT 10SM CLR 26/25 A2989 RMK AO2 T02620248
KOCW 240355Z AUTO 19004KT 10SM CLR 27/25 A2990 RMK AO2 T02650249
KOCW 240335Z AUTO 18003KT 10SM CLR 27/25 A2989 RMK AO2 T02660249
KOCW 240315Z AUTO 17005KT 5SM BR SCT015 27/25 A2989 RMK AO2 T02700249
KOCW 240255Z AUTO 18006KT 10SM CLR 27/25 A2989 RMK AO2 T02700247
KOCW 240235Z AUTO 16005KT 10SM CLR 27/25 A2988 RMK AO2 T02730247
KOCW 240215Z AUTO 16005KT 10SM SCT055 BKN065 28/24 A2988 RMK AO2 T02750242
KOCW 240155Z AUTO 00000KT 10SM SCT025 OVC055 27/24 A2988 RMK AO2 T02710241
KOCW 240135Z AUTO 00000KT 10SM BKN025 BKN048 OVC055 27/24 A2986 RMK AO2 T02720240
KOCW 240115Z AUTO 32003KT 10SM SCT050 BKN055 BKN065 29/24 A2986 RMK AO2 T02860235
KOCW 240055Z AUTO 21009KT 10SM BKN050 OVC065 29/23 A2985 RMK AO2 T02890234
KOCW 240035Z AUTO 21003KT 10SM OVC050 29/24 A2985 RMK AO2 T02900241
KOCW 240015Z AUTO 20009G16KT 10SM SCT055 BKN075 BKN090 29/25 A2981 RMK AO2 T02910246
KOCW 232355Z AUTO 18009KT 10SM SCT075 29/25 A2980 RMK AO2 60024 T02920250 10338 20252
KOCW 232335Z AUTO 20010G15KT 10SM CLR 30/26 A2980 RMK AO2 T02950255
KOCW 232315Z AUTO 20013G19KT 10SM CLR 30/25 A2979 RMK AO2 T02970250
KOCW 232255Z AUTO 19011G16KT 10SM CLR 30/25 A2980 RMK AO2 T03010246
KOCW 232235Z AUTO 19010G17KT 10SM CLR 30/24 A2980 RMK AO2 T02970242
KOCW 232215Z AUTO 17010KT 10SM SCT041 SCT047 BKN075 31/25 A2980 RMK AO2 T03110245
KOCW 232155Z AUTO 18009KT 10SM SCT046 SCT075 SCT085 31/25 A2980 RMK AO2 T03130246
KOCW 232135Z AUTO 17008KT 10SM CLR 31/24 A2980 RMK AO2 T03140238
KOCW 232115Z AUTO 19008G15KT 10SM SCT049 SCT080 32/24 A2981 RMK AO2 T03200236
KOCW 232055Z AUTO 19010G15KT 10SM CLR 32/23 A2981 RMK AO2 60024 T03200234
KOCW 232035Z AUTO 20005KT 10SM CLR 31/25 A2982 RMK AO2 T03120245
KOCW 232015Z AUTO 00000KT 10SM CLR 29/25 A2981 RMK AO2 T02920249
KOCW 231955Z AUTO 00000KT 10SM SCT011 SCT027 SCT036 28/24 A2982 RMK AO2 P0024 T02770244
KOCW 231935Z AUTO 32005G16KT 1 1/4SM +RA SCT011 BKN028 OVC050 25/22 A2984 RMK AO2 VIS 3/4V5 P0024 T02540217
KOCW 231915Z AUTO 27014G23KT 240V300 10SM SCT044 SCT060 BKN110 32/23 A2984 RMK AO2 T03180227
KOCW 231855Z AUTO 21010G17KT 10SM SCT044 SCT049 BKN060 32/23 A2983 RMK AO2 T03230228
KOCW 231835Z AUTO 20011G15KT 10SM CLR 34/23 A2982 RMK AO2 T03360227
KOCW 231815Z AUTO 22010KT 10SM SCT045 SCT050 33/23 A2983 RMK AO2 T03290226
KOCW 231755Z AUTO 22011G15KT 10SM BKN043 BKN050 33/23 A2985 RMK AO2 T03250225 10333 20267
KOCW 231735Z AUTO 20007KT 10SM SCT043 SCT048 BKN055 33/22 A2986 RMK AO2 T03280224
KOCW 231715Z AUTO 22010KT 10SM SCT043 33/23 A2987 RMK AO2 T03310228
KOCW 231655Z AUTO 21010KT 10SM CLR 33/23 A2987 RMK AO2 T03330226
KOCW 231635Z AUTO 21010G14KT 10SM CLR 33/22 A2987 RMK AO2 T03260220
KOCW 231615Z AUTO 24009G16KT 10SM CLR 32/22 A2988 RMK AO2 T03240217
KOCW 231555Z AUTO 22011G14KT 10SM CLR 32/22 A2988 RMK AO2 T03210216
KOCW 231535Z AUTO 20007KT 10SM CLR 32/22 A2988 RMK AO2 T03170217
KOCW 231515Z AUTO 19007KT 10SM CLR 32/23 A2988 RMK AO2 T03190225
KOCW 231455Z AUTO 21010G15KT 10SM SCT030 31/22 A2989 RMK AO2 T03110224
KOCW 231435Z AUTO 23009KT 10SM SCT030 31/23 A2989 RMK AO2 T03120232
KOCW 231415Z AUTO 21006KT 10SM CLR 31/23 A2988 RMK AO2 T03050233
KOCW 231355Z AUTO 21008KT 10SM CLR 30/23 A2988 RMK AO2 T03000233
KOCW 231335Z AUTO 21007KT 10SM CLR 29/23 A2988 RMK AO2 T02920233
KOCW 231315Z AUTO 21008KT 10SM CLR 30/24 A2988 RMK AO2 T02950241
KOCW 231255Z AUTO 23007KT 10SM SCT013 29/25 A2989 RMK AO2 T02910246
KOCW 231235Z AUTO 23007KT 10SM SCT010 28/25 A2988 RMK AO2 T02790246
KOCW 231215Z AUTO 22007KT 10SM SCT010 27/25 A2988 RMK AO2 T02720246
KOCW 231155Z AUTO 21005KT 10SM SCT010 26/25 A2988 RMK AO2 T02640245 10264 20250
KOCW 231135Z AUTO 17007KT 10SM SCT010 26/24 A2986 RMK AO2 T02600242
KOCW 231115Z AUTO 17006KT 10SM CLR 26/24 A2986 RMK AO2 T02610242
KOCW 231055Z AUTO 18005KT 10SM CLR 26/24 A2986 RMK AO2 T02590242
KOCW 231035Z AUTO 17005KT 10SM CLR 26/24 A2985 RMK AO2 T02550240